Latest Coastal Weather Observations for Brisbane Airport

IDQ60701

Issued at 11:51 am EST Sunday 14 February 2016 (issued every 10 minutes, with the page automatically refreshed every 10 minutes)

About coastal observations | Map of coastal stations | Coastal observations for QLD | Marine services | Other Formats
Station Details ID: 040842 Name: BRISBANE AERO Lat: -27.39 Lon: 153.13 Height: 4.51 m
Data from the previous 72 hours. | See also: Recent months at Brisbane Airport
Date/Time
EST
Temp

°C
Wind Pressure Rain
since 9am
mm
Weather Cloud Vis
km
Sea
Height
m
Swell
Dir
 
Speed
knots
Gust
knots
hPa Trend Height
m
Period
s
Dir
14/11:30am 29.6 ESE 11 18 1007.5 - 0.0 - Mostly clear 10 - - - -
14/11:00am 29.3 ESE 13 19 1007.9 - 0.0 - Mostly clear 10 - - - -
14/10:30am 28.9 ESE 13 20 1008.3 - 0.0 - Mostly clear 10 - - - -
14/10:00am 28.6 ESE 11 17 1008.4 - 0.0 - Mostly clear 10 - - - -
14/09:30am 27.5 SSE 9 16 1008.7 - 0.0 - Mostly clear 10 - - - -
14/09:00am 27.2 SSE 9 16 1008.7 F 0.8 Fine Partly cloudy 30 - - - -
14/08:30am 25.7 S 8 15 1008.6 - 0.8 - Mostly clear 10 - - - -
14/08:00am 24.7 SSW 9 14 1008.6 - 0.8 - Mostly clear 10 - - - -
14/07:30am 23.4 SSW 12 15 1008.7 - 0.8 - Mostly clear 10 - - - -
14/07:00am 22.6 SSW 13 17 1008.7 - 0.8 - Mostly clear 10 - - - -
14/06:30am 21.7 SSW 11 17 1008.6 - 0.8 - Partly cloudy 10 - - - -
14/06:00am 20.3 SSW 8 11 1008.6 F 0.8 Fine Partly cloudy 30 - - - -
14/05:30am 19.7 SSW 8 10 1008.4 - 0.8 - Mostly clear 10 - - - -
14/05:00am 19.4 SSW 9 11 1008.1 - 0.8 - Mostly clear 10 - - - -
14/04:30am 19.9 SSW 8 11 1007.9 - 0.8 - Mostly clear 10 - - - -
14/04:00am 20.1 SSW 9 13 1007.8 - 0.8 - Mostly clear 10 - - - -
14/03:30am 20.4 SSW 9 11 1007.9 - 0.8 - Mostly clear 10 - - - -
14/03:00am 20.2 SSW 9 12 1008.0 F 0.8 Fine Clear 30 - - - -
14/02:30am 20.3 SSW 8 10 1008.1 - 0.8 - - 10 - - - -
14/02:00am 20.9 SSW 9 10 1008.4 - 0.8 - - 10 - - - -
14/01:30am 20.5 SSW 8 10 1008.8 - 0.8 - - 10 - - - -
14/01:00am 22.3 SSW 7 11 1009.2 - 0.8 - - 10 - - - -
14/12:30am 22.4 SSW 7 10 1009.4 - 0.8 - - 10 - - - -
14/12:00am 22.2 S 7 8 1009.9 S 0.8 Fine Clear 30 - - - -
 
Date/Time
EST
Temp

°C
Wind Pressure Rain
since 9am
mm
Weather Cloud Vis
km
Sea
Height
m
Swell
Dir
 
Speed
knots
Gust
knots
hPa Trend Height
m
Period
s
Dir
13/11:30pm 22.4 S 7 12 1010.3 - 0.8 - - 10 - - - -
13/11:00pm 22.7 SSW 6 8 1010.4 - 0.8 - - 10 - - - -
13/10:30pm 22.7 S 8 14 1010.4 - 0.8 - - 10 - - - -
13/10:00pm 23.0 S 8 13 1010.5 - 0.8 - - 10 - - - -
13/09:30pm 23.3 SSE 9 18 1010.3 - 0.8 - - 10 - - - -
13/09:00pm 23.4 S 8 16 1010.6 F 0.8 Fine Partly cloudy 25 - - - -
13/08:30pm 23.7 S 8 13 1010.7 - 0.8 - - 10 - - - -
13/08:00pm 23.9 SSE 7 12 1010.7 - 0.8 - - 10 - - - -
13/07:30pm 24.4 SE 10 16 1010.4 - 0.8 - Mostly clear 10 - - - -
13/07:00pm 24.6 SSE 11 19 1010.0 - 0.8 - Mostly clear 10 - - - -
13/06:30pm 25.0 SE 8 14 1009.8 - 0.8 - Mostly clear 10 - - - -
13/06:00pm 25.4 SE 10 18 1009.4 F 0.8 Haze Partly cloudy 17 - - - -
13/05:30pm 26.2 SE 11 19 1009.3 - 0.8 - Mostly clear 10 - - - -
13/05:00pm 25.7 SE 11 19 1009.3 - 0.8 - Mostly clear 10 - - - -
13/04:30pm 26.0 SE 13 21 1009.3 - 0.8 - Mostly clear 10 - - - -
13/04:00pm 26.3 ESE 12 21 1009.3 - 0.8 - Mostly clear 10 - - - -
13/03:30pm 27.0 ESE 13 21 1009.3 - 0.8 - Mostly clear 10 - - - -
13/03:00pm 26.7 SE 12 21 1009.4 F 0.8 Fine Mostly cloudy 25 - - - -
13/02:30pm 26.6 ESE 13 19 1009.4 - 0.8 - Mostly clear 10 - - - -
13/02:00pm 27.2 ESE 14 22 1009.5 - 0.8 - Mostly clear 10 - - - -
13/01:30pm 27.2 SE 11 19 1009.7 - 0.8 - Mostly clear 10 - - - -
13/01:00pm 25.7 SSE 9 18 1010.3 - 0.8 - Mostly clear 10 - - - -
13/12:30pm 24.3 SSE 10 18 1010.8 - 0.8 - Mostly clear 10 - - - -
13/12:00pm 22.1 S 11 17 1011.1 R 0.8 Showers Cloudy 12 - - - -
13/11:30am 23.5 SSE 12 19 1011.2 - 0.0 - Mostly clear 10 - - - -
13/11:00am 25.5 SSE 10 16 1011.1 - 0.0 - Mostly clear 10 - - - -
13/10:30am 26.0 SSE 12 19 1011.1 - 0.0 - Mostly clear 10 - - - -
13/10:00am 24.4 SSE 9 16 1011.4 - 0.0 - Mostly clear 10 - - - -
13/09:30am 23.5 SSE 11 19 1011.6 - 0.0 Showers Mostly clear 10 - - - -
13/09:00am 25.0 S 8 13 1011.4 F 0.0 Distant precip. Mostly cloudy 30 - - - -
13/08:30am 24.6 S 11 16 1011.7 - 0.0 - Mostly clear 10 - - - -
13/08:00am 24.4 S 10 16 1011.4 - 0.0 - Mostly clear 10 - - - -
13/07:30am 22.8 SSW 10 14 1011.5 - 0.0 - Mostly clear 10 - - - -
13/07:00am 22.2 SSW 13 16 1011.3 - 0.0 - Mostly clear 10 - - - -
13/06:30am 20.9 SSW 10 14 1011.1 - 0.0 - Partly cloudy 10 - - - -
13/06:00am 20.7 SSW 9 11 1010.6 F 0.0 Haze Partly cloudy 15 - - - -
13/05:30am 22.0 S 8 11 1010.3 - 0.0 - - 10 - - - -
13/05:00am 21.9 SSW 8 15 1010.3 - 0.0 - - 10 - - - -
13/04:30am 20.5 SSW 9 12 1010.1 - 0.0 - Mostly clear 10 - - - -
13/04:00am 21.4 SSW 7 9 1010.4 - 0.0 - Mostly clear 10 - - - -
13/03:30am 20.4 SSW 9 11 1010.4 - 0.0 - Mostly clear 10 - - - -
13/03:00am 20.2 SSW 7 9 1010.9 S 0.0 Fine Mostly cloudy 30 - - - -
13/02:30am 20.4 SSW 7 9 1010.9 - 0.0 - Mostly clear 10 - - - -
13/02:00am 20.4 SSW 7 9 1011.0 - 0.0 - Mostly clear 10 - - - -
13/01:30am 21.4 SSW 7 9 1011.3 - 0.0 - Partly cloudy 10 - - - -
13/01:00am 22.5 SSW 7 9 1011.1 - 0.0 - Partly cloudy 10 - - - -
13/12:30am 22.7 SSW 7 13 1011.5 - 0.0 - Partly cloudy 10 - - - -
13/12:00am 23.0 S 7 10 1012.0 F 0.0 Fine Mostly clear 30 - - - -
 
Date/Time
EST
Temp

°C
Wind Pressure Rain
since 9am
mm
Weather Cloud Vis
km
Sea
Height
m
Swell
Dir
 
Speed
knots
Gust
knots
hPa Trend Height
m
Period
s
Dir
12/11:30pm 23.0 S 7 10 1012.2 - 0.0 - Mostly clear 10 - - - -
12/11:00pm 23.2 S 7 9 1012.5 - 0.0 - Partly cloudy 10 - - - -
12/10:30pm 23.3 S 7 11 1013.1 - 0.0 - Partly cloudy 10 - - - -
12/10:00pm 23.7 SSW 7 10 1013.0 - 0.0 - Mostly cloudy 10 - - - -
12/09:30pm 23.9 SSW 7 9 1013.1 - 0.0 - Partly cloudy 10 - - - -
12/09:00pm 23.9 S 9 15 1013.1 F 0.0 Fine Mostly clear 30 - - - -
12/08:30pm 24.2 SSE 9 15 1013.0 - 0.0 - - 10 - - - -
12/08:00pm 24.2 SSE 8 18 1012.8 - 0.0 - - 10 - - - -
12/07:30pm 24.6 SSE 7 10 1012.7 - 0.0 - - 10 - - - -
12/07:00pm 24.9 SSE 10 18 1012.6 - 0.0 - Mostly clear 10 - - - -
12/06:30pm 25.4 SE 10 16 1012.4 - 0.0 - Mostly clear 10 - - - -
12/06:00pm 26.2 SE 12 19 1012.2 R 0.0 Haze Mostly clear 20 - - - -
12/05:30pm 26.4 SE 11 18 1012.0 - 0.0 - Mostly clear 10 - - - -
12/05:00pm 26.7 SE 13 21 1011.8 - 0.0 - Mostly clear 10 - - - -
12/04:30pm 26.9 ESE 13 22 1011.6 - 0.0 - Mostly clear 10 - - - -
12/04:10pm 26.9 ESE 15 25 1011.5 - 0.0 - Mostly clear 10 - - - -
12/04:00pm 26.9 ESE 14 23 1011.5 - 0.0 - Partly cloudy 10 - - - -
12/03:30pm 27.8 ESE 16 26 1011.5 - 0.0 - Mostly clear 10 - - - -
12/03:27pm 27.3 ESE 15 25 1011.4 - 0.0 - Mostly clear 10 - - - -
12/03:00pm 27.9 ESE 15 22 1011.6 R 0.0 Fine Mostly cloudy 25 - - - -
12/02:30pm 28.2 ESE 14 24 1011.5 - 0.0 - Mostly clear 10 - - - -
12/02:00pm 27.3 ESE 14 25 1011.7 - 0.0 - Mostly clear 10 - - - -
12/01:30pm 27.1 ESE 14 22 1011.9 - 0.0 - Partly cloudy 10 - - - -
12/01:00pm 28.1 ESE 15 23 1012.0 - 0.0 - Partly cloudy 10 - - - -
12/12:30pm 28.5 ESE 14 23 1012.2 - 0.0 - Partly cloudy 10 - - - -
12/12:00pm 28.1 ESE 13 23 1012.3 R 0.0 Fine Partly cloudy 30 - - - -
12/11:30am 28.1 ESE 13 24 1012.6 - 0.0 - Partly cloudy 10 - - - -
12/11:00am 28.4 ESE 13 20 1012.8 - 0.0 - Partly cloudy 10 - - - -
12/10:30am 28.1 ESE 12 18 1012.9 - 0.0 - Partly cloudy 10 - - - -
12/10:00am 27.6 SE 12 18 1013.1 - 0.0 - Partly cloudy 10 - - - -
12/09:30am 27.0 ESE 12 18 1013.1 - 0.0 - Partly cloudy 10 - - - -
12/09:00am 27.0 SE 10 18 1013.0 F 0.0 Fine Partly cloudy 30 - - - -
12/08:30am 26.8 SE 10 16 1013.1 - 0.0 - Mostly clear 10 - - - -
12/08:00am 25.8 SE 7 13 1013.2 - 0.0 - Mostly clear 10 - - - -
12/07:30am 25.1 SSE 7 12 1013.1 - 0.0 - Mostly clear 10 - - - -
12/07:00am 23.3 S 6 9 1013.2 - 0.0 - Mostly clear 10 - - - -
12/06:30am 21.4 SSW 7 9 1012.9 - 0.0 - Mostly clear 10 - - - -
12/06:00am 20.1 SSW 6 8 1012.8 F 0.0 Fine Mostly clear 30 - - - -
12/05:30am 20.5 SSW 7 10 1012.8 - 0.0 - Mostly clear 10 - - - -
12/05:00am 20.1 SSW 8 11 1012.7 - 0.0 - Mostly clear 10 - - - -
12/04:30am 21.5 S 6 8 1012.2 - 0.0 - Mostly clear 10 - - - -
12/04:00am 21.7 S 6 8 1012.2 - 0.0 - Mostly clear 10 - - - -
12/03:30am 21.7 SSW 6 8 1012.2 - 0.0 - Mostly clear 10 - - - -
12/03:00am 21.4 SSW 7 9 1012.3 R 0.0 Haze Mostly clear 25 - - - -
12/02:30am 22.2 SSW 6 8 1012.4 - 0.0 - Mostly clear 10 - - - -
12/02:00am 22.1 SSW 7 10 1012.4 - 0.0 - Mostly clear 10 - - - -
12/01:30am 22.5 SSW 6 9 1012.5 - 0.0 - Mostly clear 10 - - - -
12/01:00am 22.6 SSW 7 10 1012.6 - 0.0 - Mostly clear 10 - - - -
12/12:30am 22.7 SSW 6 7 1012.7 - 0.0 - Mostly clear 10 - - - -
12/12:00am 22.7 SSW 6 7 1012.9 R 0.0 Haze Partly cloudy 25 - - - -
 
Date/Time
EST
Temp

°C
Wind Pressure Rain
since 9am
mm
Weather Cloud Vis
km
Sea
Height
m
Swell
Dir
 
Speed
knots
Gust
knots
hPa Trend Height
m
Period
s
Dir
11/11:30pm 22.7 SSW 5 7 1013.0 - 0.0 - Mostly clear 10 - - - -
11/11:00pm 23.0 S 5 7 1013.3 - 0.0 - Mostly clear 10 - - - -
11/10:30pm 23.4 SSW 5 7 1013.5 - 0.0 - Mostly clear 10 - - - -
11/10:00pm 23.8 ESE 7 11 1013.4 - 0.0 - Mostly clear 10 - - - -
11/09:30pm 24.7 ESE 8 12 1013.4 - 0.0 - Partly cloudy 10 - - - -
11/09:00pm 24.7 ESE 8 12 1013.3 F 0.0 Haze Mostly clear 25 - - - -
11/08:30pm 24.8 ESE 8 14 1013.3 - 0.0 - Partly cloudy 10 - - - -
11/08:00pm 24.9 ESE 9 15 1013.1 - 0.0 - Mostly clear 10 - - - -
11/07:30pm 25.0 ESE 10 17 1012.9 - 0.0 - Mostly clear 10 - - - -
11/07:00pm 25.0 ESE 8 13 1012.6 - 0.0 - Mostly clear 10 - - - -
11/06:30pm 25.2 ESE 10 18 1012.4 - 0.0 - Mostly clear 10 - - - -
11/06:00pm 25.5 ESE 11 16 1012.0 R 0.0 Haze Mostly clear 25 - - - -
11/05:30pm 26.0 ESE 11 20 1011.6 - 0.0 - Mostly clear 10 - - - -
11/05:00pm 26.7 ESE 13 18 1011.2 - 0.0 - Mostly clear 10 - - - -
11/04:30pm 26.9 ESE 12 22 1011.1 - 0.0 - Mostly clear 10 - - - -
11/04:00pm 27.0 ESE 13 19 1011.0 - 0.0 - Mostly clear 10 - - - -
11/03:30pm 27.7 ESE 13 19 1011.0 - 0.0 - Mostly clear 10 - - - -
11/03:00pm 28.1 ESE 14 19 1011.0 F 0.0 Haze Partly cloudy 25 - - - -
11/02:30pm 27.7 ESE 11 19 1011.1 - 0.0 - Mostly clear 10 - - - -
11/02:00pm 28.0 ESE 14 21 1011.2 - 0.0 - Mostly clear 10 - - - -
11/01:30pm 27.6 ESE 13 18 1011.4 - 0.0 - Mostly clear 10 - - - -
11/01:00pm 28.3 ESE 12 18 1011.8 - 0.0 - Mostly clear 10 - - - -
11/12:30pm 28.8 ESE 13 19 1012.3 - 0.0 - Mostly clear 10 - - - -
11/12:00pm 28.0 ESE 11 18 1012.6 R 0.0 Distant precip. Partly cloudy 25 - - - -

Other Formats:

Comma delimited format used in spreadsheet applications
http://www.bom.gov.au/fwo/IDQ60701/IDQ60701.94578.axf

JavaScript Object Notation format (JSON) in row-major order
http://www.bom.gov.au/fwo/IDQ60701/IDQ60701.94578.json